Time;durP1;ratioP1;P1;durP2;ratioP2;P2;SDS_P1;SDS_P2;PMS_P1;PMS_P2;Temp;Humidity;BMP_temperature;BMP_pressure;BME280_temperature;BME280_humidity;BME280_pressure;Samples;Min_cycle;Max_cycle;Signal;HPM_P1;HPM_P2
2022/08/21 00:00:40;;;;;;;1999.90;999.90;;;;;;;-144.65;100.00;64500.88;4994386;28;20029;-77
2022/08/21 00:03:09;;;;;;;1999.90;999.90;;;;;;;-144.65;100.00;64500.88;4988663;28;20031;-77
2022/08/21 00:05:38;;;;;;;1999.90;999.90;;;;;;;-144.65;100.00;64500.88;4993680;28;20050;-77
2022/08/21 00:08:04;;;;;;;1999.90;999.90;;;;;;;-144.65;100.00;64500.88;4994149;28;20061;-78
2022/08/21 00:10:30;;;;;;;1999.90;999.90;;;;;;;-144.65;100.00;64500.88;4993497;28;20061;-77
2022/08/21 00:12:55;;;;;;;1999.90;999.90;;;;;;;-144.65;100.00;64500.88;4993943;28;20026;-77
2022/08/21 00:15:26;;;;;;;1999.90;999.90;;;;;;;-144.65;100.00;64500.88;4994584;28;20054;-77
2022/08/21 00:17:52;;;;;;;1999.90;999.90;;;;;;;-144.65;100.00;64500.88;4995730;28;20033;-76
2022/08/21 00:20:19;;;;;;;1999.90;999.90;;;;;;;-144.65;100.00;64500.88;4997303;28;20022;-77
2022/08/21 00:22:45;;;;;;;1999.90;999.90;;;;;;;-144.65;100.00;64500.88;4977785;28;20033;-78
2022/08/21 00:25:13;;;;;;;1999.90;999.90;;;;;;;-144.65;100.00;64500.88;4993891;28;20030;-78
2022/08/21 00:27:41;;;;;;;1999.90;999.90;;;;;;;-144.65;100.00;64500.88;4991975;28;20034;-76
2022/08/21 00:30:08;;;;;;;1999.90;999.90;;;;;;;-144.65;100.00;64500.88;4998829;28;20065;-77
2022/08/21 00:32:35;;;;;;;1999.90;999.90;;;;;;;-144.65;100.00;64500.88;5002241;28;20069;-77
2022/08/21 00:35:01;;;;;;;1999.90;999.90;;;;;;;-144.65;100.00;64500.88;5003960;28;20028;-78
2022/08/21 00:37:26;;;;;;;1999.90;999.90;;;;;;;-144.65;100.00;64500.88;5011030;28;20045;-80
2022/08/21 00:39:53;;;;;;;1999.90;999.90;;;;;;;-144.65;100.00;64500.88;4998086;28;20014;-79
2022/08/21 00:42:19;;;;;;;1999.90;999.90;;;;;;;-144.65;100.00;64500.88;5004299;28;20177;-80
2022/08/21 00:44:47;;;;;;;1999.90;999.90;;;;;;;-144.65;100.00;64500.88;4982456;28;20046;-80
2022/08/21 00:47:12;;;;;;;1999.90;999.90;;;;;;;-144.65;100.00;64500.88;4999479;28;20034;-78
2022/08/21 00:49:39;;;;;;;1999.90;999.90;;;;;;;-144.65;100.00;64500.88;4995111;28;20049;-77
2022/08/21 00:52:09;;;;;;;1999.90;999.90;;;;;;;-144.65;100.00;64500.88;4980384;28;20050;-79
2022/08/21 00:54:36;;;;;;;1999.90;999.90;;;;;;;-144.65;100.00;64500.88;4997841;28;20034;-78
2022/08/21 00:57:07;;;;;;;1999.90;999.90;;;;;;;-144.65;100.00;64500.88;4998785;28;20018;-78
2022/08/21 00:59:37;;;;;;;1999.90;999.90;;;;;;;-144.65;100.00;64500.88;5000184;28;20034;-79
2022/08/21 01:02:05;;;;;;;1999.90;999.90;;;;;;;-144.65;100.00;64500.88;4999296;28;20019;-77
2022/08/21 01:04:30;;;;;;;1999.90;999.90;;;;;;;-144.65;100.00;64500.88;4998762;28;20069;-77
2022/08/21 01:06:56;;;;;;;1999.90;999.90;;;;;;;-144.65;100.00;64500.88;4998389;28;20485;-76
2022/08/21 01:09:22;;;;;;;1999.90;999.90;;;;;;;-144.65;100.00;64500.88;4996504;28;20029;-77
2022/08/21 01:11:47;;;;;;;1999.90;999.90;;;;;;;-144.65;100.00;64500.88;4996206;28;20109;-77
2022/08/21 01:14:14;;;;;;;1999.90;999.90;;;;;;;-144.65;100.00;64500.88;4996575;28;20499;-77
2022/08/21 01:16:47;;;;;;;1999.90;999.90;;;;;;;-144.65;100.00;64500.88;4997614;28;20034;-76
2022/08/21 01:19:14;;;;;;;1999.90;999.90;;;;;;;-144.65;100.00;64500.88;4997266;28;20033;-77
2022/08/21 01:21:40;;;;;;;1999.90;999.90;;;;;;;-144.65;100.00;64500.88;4998035;28;20058;-77
2022/08/21 01:24:06;;;;;;;1999.90;999.90;;;;;;;-144.65;100.00;64500.88;4996232;28;20094;-78
2022/08/21 01:26:34;;;;;;;1999.90;999.90;;;;;;;-144.65;100.00;64500.88;4994899;28;20038;-77
2022/08/21 01:29:14;;;;;;;1999.90;999.90;;;;;;;-144.65;100.00;64500.88;4996530;28;20026;-77
2022/08/21 01:31:39;;;;;;;1999.90;999.90;;;;;;;-144.65;100.00;64500.88;4996217;28;20034;-76
2022/08/21 01:34:05;;;;;;;1999.90;999.90;;;;;;;-144.65;100.00;64500.88;4996314;28;20049;-77
2022/08/21 01:36:31;;;;;;;1999.90;999.90;;;;;;;-144.65;100.00;64500.88;4985528;28;21082;-76
2022/08/21 01:38:56;;;;;;;1999.90;999.90;;;;;;;-144.65;100.00;64500.88;4993432;28;20425;-77
2022/08/21 01:41:22;;;;;;;1999.90;999.90;;;;;;;-144.65;100.00;64500.88;5008785;28;20037;-77
2022/08/21 01:43:48;;;;;;;1999.90;999.90;;;;;;;-144.65;100.00;64500.88;5016658;28;20136;-78
2022/08/21 01:46:14;;;;;;;1999.90;999.90;;;;;;;-144.65;100.00;64500.88;5016037;28;20100;-77
2022/08/21 01:48:39;;;;;;;1999.90;999.90;;;;;;;-144.65;100.00;64500.88;5016368;28;20030;-77
2022/08/21 01:51:06;;;;;;;1999.90;999.90;;;;;;;-144.65;100.00;64500.88;5016036;28;20566;-77
2022/08/21 01:53:33;;;;;;;1999.90;999.90;;;;;;;-144.65;100.00;64500.88;4995088;28;20037;-78
2022/08/21 01:55:59;;;;;;;1999.90;999.90;;;;;;;-144.65;100.00;64500.88;4999321;28;20022;-77
2022/08/21 01:58:25;;;;;;;1999.90;999.90;;;;;;;-144.65;100.00;64500.88;5000148;28;20022;-77
2022/08/21 02:00:50;;;;;;;1999.90;999.90;;;;;;;-144.65;100.00;64500.88;5000447;28;20034;-78
2022/08/21 02:03:16;;;;;;;1999.90;999.90;;;;;;;-144.65;100.00;64500.88;4982605;28;20056;-77
2022/08/21 02:05:41;;;;;;;1999.90;999.90;;;;;;;-144.65;100.00;64500.88;5000493;28;20037;-77
2022/08/21 02:08:07;;;;;;;1999.90;999.90;;;;;;;-144.65;100.00;64500.88;5002861;28;20117;-77
2022/08/21 02:10:32;;;;;;;1999.90;999.90;;;;;;;-144.65;100.00;64500.88;5003432;28;20034;-78
2022/08/21 02:13:00;;;;;;;1999.90;999.90;;;;;;;-144.65;100.00;64500.88;5004937;28;20038;-78
2022/08/21 02:15:26;;;;;;;1999.90;999.90;;;;;;;-144.65;100.00;64500.88;5005429;28;20037;-78
2022/08/21 02:17:55;;;;;;;1999.90;999.90;;;;;;;-144.65;100.00;64500.88;5000970;28;20026;-78
2022/08/21 02:20:33;;;;;;;1999.90;999.90;;;;;;;-144.65;100.00;64500.88;4980907;28;20093;-78
2022/08/21 02:22:58;;;;;;;1999.90;999.90;;;;;;;-144.65;100.00;64500.88;5000924;28;20125;-78
2022/08/21 02:25:25;;;;;;;1999.90;999.90;;;;;;;-144.65;100.00;64500.88;5001202;28;20089;-78
2022/08/21 02:27:52;;;;;;;1999.90;999.90;;;;;;;-144.65;100.00;64500.88;4983475;28;20026;-78
2022/08/21 02:30:25;;;;;;;1999.90;999.90;;;;;;;-144.65;100.00;64500.88;5001286;28;20040;-77
2022/08/21 02:32:50;;;;;;;1999.90;999.90;;;;;;;-144.65;100.00;64500.88;4983402;28;20041;-78
2022/08/21 02:35:15;;;;;;;1999.90;999.90;;;;;;;-144.65;100.00;64500.88;5002103;28;20038;-78
2022/08/21 02:37:49;;;;;;;1999.90;999.90;;;;;;;-144.65;100.00;64500.88;5015989;28;20501;-78
2022/08/21 02:40:17;;;;;;;1999.90;999.90;;;;;;;-144.65;100.00;64500.88;5022593;28;20037;-78
2022/08/21 02:42:43;;;;;;;1999.90;999.90;;;;;;;-144.65;100.00;64500.88;5023179;28;20018;-78
2022/08/21 02:45:09;;;;;;;1999.90;999.90;;;;;;;-144.65;100.00;64500.88;5023260;28;20046;-78
2022/08/21 02:47:35;;;;;;;1999.90;999.90;;;;;;;-144.65;100.00;64500.88;5023006;28;20022;-79
2022/08/21 02:50:00;;;;;;;1999.90;999.90;;;;;;;-144.65;100.00;64500.88;5022568;28;20034;-78
2022/08/21 02:52:26;;;;;;;1999.90;999.90;;;;;;;-144.65;100.00;64500.88;5005407;28;20077;-78
2022/08/21 02:54:51;;;;;;;1999.90;999.90;;;;;;;-144.65;100.00;64500.88;5022962;28;20022;-78
2022/08/21 02:57:16;;;;;;;1999.90;999.90;;;;;;;-144.65;100.00;64500.88;5023279;28;20036;-78
2022/08/21 02:59:41;;;;;;;1999.90;999.90;;;;;;;-144.65;100.00;64500.88;5023077;28;20037;-78
2022/08/21 03:02:07;;;;;;;1999.90;999.90;;;;;;;-144.65;100.00;64500.88;5022261;28;20028;-78
2022/08/21 03:04:32;;;;;;;1999.90;999.90;;;;;;;-144.65;100.00;64500.88;5004323;28;20048;-78
2022/08/21 03:06:58;;;;;;;1999.90;999.90;;;;;;;-144.65;100.00;64500.88;5021480;28;20041;-79
2022/08/21 03:09:23;;;;;;;1999.90;999.90;;;;;;;-144.65;100.00;64500.88;5021018;28;20079;-79
2022/08/21 03:11:51;;;;;;;1999.90;999.90;;;;;;;-144.65;100.00;64500.88;5021717;28;20026;-78
2022/08/21 03:14:17;;;;;;;1999.90;999.90;;;;;;;-144.65;100.00;64500.88;5021934;28;20182;-78
2022/08/21 03:16:42;;;;;;;1999.90;999.90;;;;;;;-144.65;100.00;64500.88;5022341;28;20082;-78
2022/08/21 03:19:08;;;;;;;1999.90;999.90;;;;;;;-144.65;100.00;64500.88;5021515;28;20025;-78
2022/08/21 03:21:33;;;;;;;1999.90;999.90;;;;;;;-144.65;100.00;64500.88;5020771;28;20029;-79
2022/08/21 03:23:58;;;;;;;1999.90;999.90;;;;;;;-144.65;100.00;64500.88;5004165;28;20072;-78
2022/08/21 03:26:24;;;;;;;1999.90;999.90;;;;;;;-144.65;100.00;64500.88;5022471;28;20026;-78
2022/08/21 03:28:50;;;;;;;1999.90;999.90;;;;;;;-144.65;100.00;64500.88;5023021;28;20018;-78
2022/08/21 03:31:16;;;;;;;1999.90;999.90;;;;;;;-144.65;100.00;64500.88;5006356;28;20025;-78
2022/08/21 03:33:42;;;;;;;1999.90;999.90;;;;;;;-144.65;100.00;64500.88;5006422;28;20049;-78
2022/08/21 03:36:08;;;;;;;1999.90;999.90;;;;;;;-144.65;100.00;64500.88;5025828;28;20013;-79
2022/08/21 03:38:35;;;;;;;1999.90;999.90;;;;;;;-144.65;100.00;64500.88;5031968;28;20014;-79
2022/08/21 03:41:01;;;;;;;1999.90;999.90;;;;;;;-144.65;100.00;64500.88;5034229;28;20013;-79
2022/08/21 03:43:28;;;;;;;1999.90;999.90;;;;;;;-144.65;100.00;64500.88;5028036;28;20026;-79
2022/08/21 03:45:53;;;;;;;1999.90;999.90;;;;;;;-144.65;100.00;64500.88;5023275;28;20025;-79
2022/08/21 03:48:19;;;;;;;1999.90;999.90;;;;;;;-144.65;100.00;64500.88;5016071;28;20459;-78
2022/08/21 03:50:46;;;;;;;1999.90;999.90;;;;;;;-144.65;100.00;64500.88;5016189;28;20053;-78
2022/08/21 03:53:13;;;;;;;1999.90;999.90;;;;;;;-144.65;100.00;64500.88;5015855;28;20032;-78
2022/08/21 03:55:39;;;;;;;1999.90;999.90;;;;;;;-144.65;100.00;64500.88;5016364;28;20124;-78
2022/08/21 03:58:05;;;;;;;1999.90;999.90;;;;;;;-144.65;100.00;64500.88;5014302;28;20120;-79
2022/08/21 04:00:30;;;;;;;1999.90;999.90;;;;;;;-144.65;100.00;64500.88;5014451;28;20120;-78
2022/08/21 04:02:55;;;;;;;1999.90;999.90;;;;;;;-144.65;100.00;64500.88;5014681;28;20030;-78
2022/08/21 04:05:27;;;;;;;1999.90;999.90;;;;;;;-144.65;100.00;64500.88;5014639;28;20459;-78
2022/08/21 04:07:57;;;;;;;1999.90;999.90;;;;;;;-144.65;100.00;64500.88;5015008;28;20080;-78
2022/08/21 04:10:24;;;;;;;1999.90;999.90;;;;;;;-144.65;100.00;64500.88;4996758;28;20034;-78
2022/08/21 04:12:49;;;;;;;1999.90;999.90;;;;;;;-144.65;100.00;64500.88;5015648;28;20455;-78
2022/08/21 04:15:15;;;;;;;1999.90;999.90;;;;;;;-144.65;100.00;64500.88;4998288;28;20025;-78
2022/08/21 04:17:40;;;;;;;1999.90;999.90;;;;;;;-144.65;100.00;64500.88;5015293;28;20025;-79
2022/08/21 04:20:06;;;;;;;1999.90;999.90;;;;;;;-144.65;100.00;64500.88;5015725;28;20022;-79
2022/08/21 04:22:31;;;;;;;1999.90;999.90;;;;;;;-144.65;100.00;64500.88;5015277;28;20545;-78
2022/08/21 04:24:57;;;;;;;1999.90;999.90;;;;;;;-144.65;100.00;64500.88;5015871;28;20025;-79
2022/08/21 04:27:22;;;;;;;1999.90;999.90;;;;;;;-144.65;100.00;64500.88;5015702;28;20422;-78
2022/08/21 04:29:47;;;;;;;1999.90;999.90;;;;;;;-144.65;100.00;64500.88;5016285;28;20022;-78
2022/08/21 04:32:13;;;;;;;1999.90;999.90;;;;;;;-144.65;100.00;64500.88;5016241;28;20398;-78
2022/08/21 04:34:38;;;;;;;1999.90;999.90;;;;;;;-144.65;100.00;64500.88;5016063;28;20053;-79
2022/08/21 04:37:04;;;;;;;1999.90;999.90;;;;;;;-144.65;100.00;64500.88;4999498;28;20040;-78
2022/08/21 04:39:29;;;;;;;1999.90;999.90;;;;;;;-144.65;100.00;64500.88;5016184;28;20025;-79
2022/08/21 04:41:56;;;;;;;1999.90;999.90;;;;;;;-144.65;100.00;64500.88;5015874;28;20045;-78
2022/08/21 04:44:21;;;;;;;1999.90;999.90;;;;;;;-144.65;100.00;64500.88;5016407;28;20045;-78
2022/08/21 04:46:47;;;;;;;1999.90;999.90;;;;;;;-144.65;100.00;64500.88;5017553;28;20041;-78
2022/08/21 04:49:12;;;;;;;1999.90;999.90;;;;;;;-144.65;100.00;64500.88;5018950;28;20021;-78
2022/08/21 04:51:38;;;;;;;1999.90;999.90;;;;;;;-144.65;100.00;64500.88;5019473;28;20098;-79
2022/08/21 04:54:07;;;;;;;1999.90;999.90;;;;;;;-144.65;100.00;64500.88;5001023;28;20201;-79
2022/08/21 04:56:39;;;;;;;1999.90;999.90;;;;;;;-144.65;100.00;64500.88;5019198;28;20030;-78
2022/08/21 04:59:17;;;;;;;1999.90;999.90;;;;;;;-144.65;100.00;64500.88;5019866;28;20038;-78
2022/08/21 05:01:43;;;;;;;1999.90;999.90;;;;;;;-144.65;100.00;64500.88;5011352;28;20038;-79
2022/08/21 05:04:14;;;;;;;1999.90;999.90;;;;;;;-144.65;100.00;64500.88;4979677;28;20070;-79
2022/08/21 05:06:42;;;;;;;1999.90;999.90;;;;;;;-144.65;100.00;64500.88;4979304;28;20033;-79
2022/08/21 05:09:09;;;;;;;1999.90;999.90;;;;;;;-144.65;100.00;64500.88;4993679;28;20030;-79
2022/08/21 05:11:35;;;;;;;1999.90;999.90;;;;;;;-144.65;100.00;64500.88;4998778;28;20061;-77
2022/08/21 05:14:00;;;;;;;1999.90;999.90;;;;;;;-144.65;100.00;64500.88;4998811;28;20037;-77
2022/08/21 05:16:26;;;;;;;1999.90;999.90;;;;;;;-144.65;100.00;64500.88;4982097;28;20030;-79
2022/08/21 05:18:51;;;;;;;1999.90;999.90;;;;;;;-144.65;100.00;64500.88;4999424;28;20083;-79
2022/08/21 05:21:17;;;;;;;1999.90;999.90;;;;;;;-144.65;100.00;64500.88;4999508;28;20085;-78
2022/08/21 05:23:42;;;;;;;1999.90;999.90;;;;;;;-144.65;100.00;64500.88;4981847;28;20099;-78
2022/08/21 05:26:08;;;;;;;1999.90;999.90;;;;;;;-144.65;100.00;64500.88;5000593;28;20033;-78
2022/08/21 05:28:33;;;;;;;1999.90;999.90;;;;;;;-144.65;100.00;64500.88;4981428;28;20054;-77
2022/08/21 05:30:59;;;;;;;1999.90;999.90;;;;;;;-144.65;100.00;64500.88;5000012;28;20042;-78
2022/08/21 05:33:25;;;;;;;1999.90;999.90;;;;;;;-144.65;100.00;64500.88;4998676;28;20033;-77
2022/08/21 05:35:52;;;;;;;1999.90;999.90;;;;;;;-144.65;100.00;64500.88;4996123;28;20030;-74
2022/08/21 05:38:18;;;;;;;1999.90;999.90;;;;;;;-144.65;100.00;64500.88;4991626;28;20034;-72
2022/08/21 05:40:43;;;;;;;1999.90;999.90;;;;;;;-144.65;100.00;64500.88;4991003;28;20037;-72
2022/08/21 05:43:09;;;;;;;1999.90;999.90;;;;;;;-144.65;100.00;64500.88;4973453;28;20026;-72
2022/08/21 05:45:34;;;;;;;1999.90;999.90;;;;;;;-144.65;100.00;64500.88;4990531;28;20499;-71
2022/08/21 05:48:09;;;;;;;1999.90;999.90;;;;;;;-144.65;100.00;64500.88;4990921;28;20034;-72
2022/08/21 05:50:37;;;;;;;1999.90;999.90;;;;;;;-144.65;100.00;64500.88;4991177;28;20030;-73
2022/08/21 05:53:02;;;;;;;1999.90;999.90;;;;;;;-144.65;100.00;64500.88;4996478;28;20022;-73
2022/08/21 05:55:28;;;;;;;1999.90;999.90;;;;;;;-144.65;100.00;64500.88;4997442;28;20034;-75
2022/08/21 05:57:53;;;;;;;1999.90;999.90;;;;;;;-144.65;100.00;64500.88;4991232;28;20029;-73
2022/08/21 06:00:18;;;;;;;1999.90;999.90;;;;;;;-144.65;100.00;64500.88;4990658;28;20062;-71
2022/08/21 06:02:44;;;;;;;1999.90;999.90;;;;;;;-144.65;100.00;64500.88;4990777;28;20065;-71
2022/08/21 06:05:09;;;;;;;1999.90;999.90;;;;;;;-144.65;100.00;64500.88;4990755;28;20058;-72
2022/08/21 06:07:35;;;;;;;1999.90;999.90;;;;;;;-144.65;100.00;64500.88;4990932;28;20462;-74
2022/08/21 06:10:00;;;;;;;1999.90;999.90;;;;;;;-144.65;100.00;64500.88;4992031;28;20085;-77
2022/08/21 06:12:26;;;;;;;1999.90;999.90;;;;;;;-144.65;100.00;64500.88;4992888;28;20482;-75
2022/08/21 06:14:52;;;;;;;1999.90;999.90;;;;;;;-144.65;100.00;64500.88;4991079;28;20513;-74
2022/08/21 06:17:18;;;;;;;1999.90;999.90;;;;;;;-144.65;100.00;64500.88;4991650;28;20386;-73
2022/08/21 06:19:43;;;;;;;1999.90;999.90;;;;;;;-144.65;100.00;64500.88;4990760;28;20033;-74
2022/08/21 06:22:08;;;;;;;1999.90;999.90;;;;;;;-144.65;100.00;64500.88;4992451;28;20026;-75
2022/08/21 06:24:34;;;;;;;1999.90;999.90;;;;;;;-144.65;100.00;64500.88;4994454;28;20014;-76
2022/08/21 06:27:05;;;;;;;1999.90;999.90;;;;;;;-144.65;100.00;64500.88;4990854;28;20070;-74
2022/08/21 06:29:30;;;;;;;1999.90;999.90;;;;;;;-144.65;100.00;64500.88;4994110;28;20010;-76
2022/08/21 06:31:56;;;;;;;1999.90;999.90;;;;;;;-144.65;100.00;64500.88;4994035;28;20023;-74
2022/08/21 06:34:21;;;;;;;1999.90;999.90;;;;;;;-144.65;100.00;64500.88;4977825;28;20040;-76
2022/08/21 06:36:46;;;;;;;1999.90;999.90;;;;;;;-144.65;100.00;64500.88;4996042;28;20050;-74
2022/08/21 06:39:13;;;;;;;1999.90;999.90;;;;;;;-144.65;100.00;64500.88;4989426;28;20058;-73
2022/08/21 06:41:39;;;;;;;1999.90;999.90;;;;;;;-144.65;100.00;64500.88;4993886;28;20057;-73
2022/08/21 06:44:04;;;;;;;1999.90;999.90;;;;;;;-144.65;100.00;64500.88;4993520;28;20410;-73
2022/08/21 06:46:31;;;;;;;1999.90;999.90;;;;;;;-144.65;100.00;64500.88;4993805;28;20031;-73
2022/08/21 06:48:57;;;;;;;1999.90;999.90;;;;;;;-144.65;100.00;64500.88;5010827;28;20084;-72
2022/08/21 06:51:25;;;;;;;1999.90;999.90;;;;;;;-144.65;100.00;64500.88;5012731;28;20083;-73
2022/08/21 06:53:51;;;;;;;1999.90;999.90;;;;;;;-144.65;100.00;64500.88;5013031;28;20371;-73
2022/08/21 06:56:16;;;;;;;1999.90;999.90;;;;;;;-144.65;100.00;64500.88;5013096;28;20033;-73
2022/08/21 06:58:41;;;;;;;1999.90;999.90;;;;;;;-144.65;100.00;64500.88;5013012;28;20029;-73
2022/08/21 07:01:07;;;;;;;1999.90;999.90;;;;;;;-144.65;100.00;64500.88;5010220;28;20105;-72
2022/08/21 07:03:40;;;;;;;1999.90;999.90;;;;;;;-144.65;100.00;64500.88;5012945;28;20089;-73
2022/08/21 07:06:08;;;;;;;1999.90;999.90;;;;;;;-144.65;100.00;64500.88;4989194;28;20065;-73
2022/08/21 07:08:33;;;;;;;1999.90;999.90;;;;;;;-144.65;100.00;64500.88;5013471;28;20137;-73
2022/08/21 07:11:04;;;;;;;1999.90;999.90;;;;;;;-144.65;100.00;64500.88;5012056;28;20140;-73
2022/08/21 07:13:29;;;;;;;1999.90;999.90;;;;;;;-144.65;100.00;64500.88;5012792;28;20044;-74
2022/08/21 07:15:55;;;;;;;1999.90;999.90;;;;;;;-144.65;100.00;64500.88;5013088;28;20027;-73
2022/08/21 07:18:20;;;;;;;1999.90;999.90;;;;;;;-144.65;100.00;64500.88;4995039;28;20080;-72
2022/08/21 07:20:46;;;;;;;1999.90;999.90;;;;;;;-144.65;100.00;64500.88;5012379;28;20018;-72
2022/08/21 07:23:27;;;;;;;1999.90;999.90;;;;;;;-144.65;100.00;64500.88;5012437;28;20034;-75
2022/08/21 07:25:53;;;;;;;1999.90;999.90;;;;;;;-144.65;100.00;64500.88;5012638;28;20080;-74
2022/08/21 07:28:19;;;;;;;1999.90;999.90;;;;;;;-144.65;100.00;64500.88;5012543;28;20471;-74
2022/08/21 07:30:46;;;;;;;1999.90;999.90;;;;;;;-144.65;100.00;64500.88;5012322;28;20032;-74
2022/08/21 07:33:11;;;;;;;1999.90;999.90;;;;;;;-144.65;100.00;64500.88;4994752;28;20048;-73
2022/08/21 07:35:37;;;;;;;1999.90;999.90;;;;;;;-144.65;100.00;64500.88;5012321;28;20034;-72
2022/08/21 07:38:03;;;;;;;1999.90;999.90;;;;;;;-144.65;100.00;64500.88;5009025;28;20083;-73
2022/08/21 07:40:29;;;;;;;1999.90;999.90;;;;;;;-144.65;100.00;64500.88;4986894;28;20109;-73
2022/08/21 07:42:54;;;;;;;1999.90;999.90;;;;;;;-144.65;100.00;64500.88;4987371;28;20110;-72
2022/08/21 07:45:30;;;;;;;1999.90;999.90;;;;;;;-144.65;100.00;64500.88;4989866;28;20043;-72
2022/08/21 07:47:56;;;;;;;1999.90;999.90;;;;;;;-144.65;100.00;64500.88;4989499;28;20058;-72
2022/08/21 07:50:21;;;;;;;1999.90;999.90;;;;;;;-144.65;100.00;64500.88;4991538;28;20065;-72
2022/08/21 07:52:47;;;;;;;1999.90;999.90;;;;;;;-144.65;100.00;64500.88;4990375;28;20038;-72
2022/08/21 07:55:16;;;;;;;1999.90;999.90;;;;;;;-144.65;100.00;64500.88;4991475;28;20029;-73
2022/08/21 07:57:41;;;;;;;1999.90;999.90;;;;;;;-144.65;100.00;64500.88;4987180;28;20022;-71
2022/08/21 08:00:11;;;;;;;1999.90;999.90;;;;;;;-144.65;100.00;64500.88;4990646;28;20030;-72
2022/08/21 08:02:37;;;;;;;1999.90;999.90;;;;;;;-144.65;100.00;64500.88;4989512;28;20030;-71
2022/08/21 08:05:05;;;;;;;1999.90;999.90;;;;;;;-144.65;100.00;64500.88;4991387;28;20069;-71
2022/08/21 08:07:30;;;;;;;1999.90;999.90;;;;;;;-144.65;100.00;64500.88;4991187;28;20505;-71
2022/08/21 08:09:56;;;;;;;1999.90;999.90;;;;;;;-144.65;100.00;64500.88;4991425;28;20026;-72
2022/08/21 08:12:21;;;;;;;1999.90;999.90;;;;;;;-144.65;100.00;64500.88;4991330;28;20474;-72
2022/08/21 08:14:47;;;;;;;1999.90;999.90;;;;;;;-144.65;100.00;64500.88;4991293;28;20034;-72
2022/08/21 08:17:13;;;;;;;1999.90;999.90;;;;;;;-144.65;100.00;64500.88;4992178;28;20106;-74
2022/08/21 08:19:39;;;;;;;1999.90;999.90;;;;;;;-144.65;100.00;64500.88;4992190;28;20030;-73
2022/08/21 08:22:14;;;;;;;1999.90;999.90;;;;;;;-144.65;100.00;64500.88;4992649;28;20030;-73
2022/08/21 08:24:39;;;;;;;;;;;;;;;-144.65;100.00;64500.88;4994498;28;20591;-74
2022/08/21 08:27:05;;;;;;;1999.90;999.90;;;;;;;-144.65;100.00;64500.88;4987508;28;20000;-73
2022/08/21 08:29:30;;;;;;;1999.90;999.90;;;;;;;-144.65;100.00;64500.88;4972758;28;20022;-73
2022/08/21 08:31:57;;;;;;;1999.90;999.90;;;;;;;-144.65;100.00;64500.88;4972559;28;20031;-73
2022/08/21 08:34:23;;;;;;;1999.90;999.90;;;;;;;-144.65;100.00;64500.88;4972426;28;20062;-73
2022/08/21 08:36:48;;;;;;;1999.90;999.90;;;;;;;-144.65;100.00;64500.88;4972530;28;20547;-73
2022/08/21 08:39:14;;;;;;;1999.90;999.90;;;;;;;-144.65;100.00;64500.88;4972777;28;20471;-73
2022/08/21 08:41:40;;;;;;;1999.90;999.90;;;;;;;-144.65;100.00;64500.88;4972202;28;20134;-74
2022/08/21 08:44:07;;;;;;;1999.90;999.90;;;;;;;-144.65;100.00;64500.88;4972165;28;20070;-73
2022/08/21 08:46:41;;;;;;;1999.90;999.90;;;;;;;-144.65;100.00;64500.88;4972146;28;20387;-73
2022/08/21 08:49:14;;;;;;;1999.90;999.90;;;;;;;-144.65;100.00;64500.88;4972318;28;20030;-72
2022/08/21 08:51:47;;;;;;;1999.90;999.90;;;;;;;-144.65;100.00;64500.88;4972705;28;20034;-72
2022/08/21 08:54:20;;;;;;;1999.90;999.90;;;;;;;-144.65;100.00;64500.88;4983675;28;20026;-72
2022/08/21 08:56:46;;;;;;;1999.90;999.90;;;;;;;-144.65;100.00;64500.88;4988289;28;20038;-72
2022/08/21 08:59:18;;;;;;;1999.90;999.90;;;;;;;-144.65;100.00;64500.88;4990373;28;20541;-71
2022/08/21 09:01:43;;;;;;;1999.90;999.90;;;;;;;-144.65;100.00;64500.88;4987936;28;20034;-71
2022/08/21 09:04:12;;;;;;;1999.90;999.90;;;;;;;-144.65;100.00;64500.88;4990026;28;20076;-73
2022/08/21 09:07:01;;;;;;;1999.90;999.90;;;;;;;-144.65;100.00;64500.88;4989677;28;20485;-73
2022/08/21 09:10:03;;;;;;;1999.90;999.90;;;;;;;-144.65;100.00;64500.88;4990596;28;20394;-72
2022/08/21 09:12:48;;;;;;;1999.90;999.90;;;;;;;-144.65;100.00;64500.88;4988660;28;20494;-72
2022/08/21 09:15:28;;;;;;;1999.90;999.90;;;;;;;-144.65;100.00;64500.88;4971337;28;20402;-72
2022/08/21 09:18:36;;;;;;;1999.90;999.90;;;;;;;-144.65;100.00;64500.88;4988984;28;20030;-72
2022/08/21 09:21:09;;;;;;;1999.90;999.90;;;;;;;-144.65;100.00;64500.88;4990037;28;20030;-72
2022/08/21 09:23:56;;;;;;;1999.90;999.90;;;;;;;-144.65;100.00;64500.88;4990183;28;20026;-72
2022/08/21 09:26:36;;;;;;;1999.90;999.90;;;;;;;-144.65;100.00;64500.88;4990036;28;20034;-73
2022/08/21 09:29:01;;;;;;;1999.90;999.90;;;;;;;-144.65;100.00;64500.88;4989931;28;20029;-73
2022/08/21 09:31:29;;;;;;;1999.90;999.90;;;;;;;-144.65;100.00;64500.88;4969279;28;20038;-72
2022/08/21 09:34:04;;;;;;;1999.90;999.90;;;;;;;-144.65;100.00;64500.88;4985953;28;20038;-72
2022/08/21 09:36:40;;;;;;;1999.90;999.90;;;;;;;-144.65;100.00;64500.88;4986317;28;20027;-71
2022/08/21 09:39:07;;;;;;;1999.90;999.90;;;;;;;-144.65;100.00;64500.88;4986205;28;20092;-71
2022/08/21 09:41:37;;;;;;;1999.90;999.90;;;;;;;-144.65;100.00;64500.88;4988218;28;20081;-72
2022/08/21 09:44:05;;;;;;;1999.90;999.90;;;;;;;-144.65;100.00;64500.88;4984251;28;20109;-71
2022/08/21 09:46:31;;;;;;;1999.90;999.90;;;;;;;-144.65;100.00;64500.88;4982889;28;20399;-73
2022/08/21 09:49:02;;;;;;;1999.90;999.90;;;;;;;-144.65;100.00;64500.88;4979460;28;20026;-73
2022/08/21 09:51:31;;;;;;;1999.90;999.90;;;;;;;-144.65;100.00;64500.88;4988623;28;20039;-73
2022/08/21 09:54:03;;;;;;;1999.90;999.90;;;;;;;-144.65;100.00;64500.88;4973754;28;20467;-71
2022/08/21 09:59:24;;;;;;;1999.90;999.90;;;;;;;-144.65;100.00;64500.88;4979316;28;20061;-72
2022/08/21 10:01:54;;;;;;;1999.90;999.90;;;;;;;-144.65;100.00;64500.88;4981028;28;20132;-73
2022/08/21 10:04:22;;;;;;;1999.90;999.90;;;;;;;-144.65;100.00;64500.88;4989966;28;20030;-73
2022/08/21 10:06:47;;;;;;;1999.90;999.90;;;;;;;-144.65;100.00;64500.88;4971995;28;20038;-73
2022/08/21 10:09:16;;;;;;;1999.90;999.90;;;;;;;-144.65;100.00;64500.88;4983827;28;20494;-73
2022/08/21 10:11:52;;;;;;;1999.90;999.90;;;;;;;-144.65;100.00;64500.88;4969830;28;20550;-73
2022/08/21 10:14:34;;;;;;;1999.90;999.90;;;;;;;-144.65;100.00;64500.88;4970468;28;20050;-73
2022/08/21 10:17:04;;;;;;;1999.90;999.90;;;;;;;-144.65;100.00;64500.88;4990919;28;20443;-73
2022/08/21 10:19:54;;;;;;;1999.90;999.90;;;;;;;-144.65;100.00;64500.88;4994323;28;20030;-73
2022/08/21 10:22:32;;;;;;;1999.90;999.90;;;;;;;-144.65;100.00;64500.88;5005926;28;20128;-73
2022/08/21 10:25:10;;;;;;;1999.90;999.90;;;;;;;-144.65;100.00;64500.88;5010121;28;20120;-73
2022/08/21 10:27:52;;;;;;;1999.90;999.90;;;;;;;-144.65;100.00;64500.88;5009216;28;20156;-73
2022/08/21 10:30:42;;;;;;;1999.90;999.90;;;;;;;-144.65;100.00;64500.88;5005784;28;20926;-74
2022/08/21 10:33:13;;;;;;;1999.90;999.90;;;;;;;-144.65;100.00;64500.88;5010068;28;20079;-74
2022/08/21 10:35:56;;;;;;;1999.90;999.90;;;;;;;-144.65;100.00;64500.88;5009694;28;20029;-73
2022/08/21 10:38:57;;;;;;;1999.90;999.90;;;;;;;-144.65;100.00;64500.88;5004284;28;20068;-74